sensor_id;sensor_type;location;lat;lon;timestamp;P1;durP1;ratioP1;P2;durP2;ratioP2
3683;SDS011;1858;48.716;9.648;2024-03-08T10:11:27;23.50;;;11.37;;
3683;SDS011;1858;48.716;9.648;2024-03-08T10:13:56;22.60;;;10.43;;
3683;SDS011;1858;48.716;9.648;2024-03-08T10:16:25;20.77;;;10.37;;
3683;SDS011;1858;48.716;9.648;2024-03-08T10:18:58;24.17;;;11.80;;
3683;SDS011;1858;48.716;9.648;2024-03-08T10:21:27;19.70;;;9.80;;
3683;SDS011;1858;48.716;9.648;2024-03-08T10:23:55;19.67;;;11.27;;
3683;SDS011;1858;48.716;9.648;2024-03-08T10:26:25;16.70;;;10.10;;
3683;SDS011;1858;48.716;9.648;2024-03-08T10:28:54;19.83;;;10.97;;
3683;SDS011;1858;48.716;9.648;2024-03-08T10:31:24;16.57;;;9.90;;
3683;SDS011;1858;48.716;9.648;2024-03-08T10:33:52;24.07;;;11.90;;
3683;SDS011;1858;48.716;9.648;2024-03-08T10:36:21;21.07;;;10.17;;
3683;SDS011;1858;48.716;9.648;2024-03-08T10:38:50;18.53;;;10.93;;
3683;SDS011;1858;48.716;9.648;2024-03-08T10:41:20;16.00;;;8.50;;
3683;SDS011;1858;48.716;9.648;2024-03-08T10:47:01;16.30;;;9.73;;
3683;SDS011;1858;48.716;9.648;2024-03-08T10:49:34;19.37;;;12.10;;
3683;SDS011;1858;48.716;9.648;2024-03-08T10:52:06;17.73;;;11.53;;
3683;SDS011;1858;48.716;9.648;2024-03-08T10:54:36;19.87;;;10.60;;
3683;SDS011;1858;48.716;9.648;2024-03-08T10:57:08;19.00;;;9.40;;
3683;SDS011;1858;48.716;9.648;2024-03-08T10:59:38;17.70;;;9.90;;
3683;SDS011;1858;48.716;9.648;2024-03-08T11:04:55;17.83;;;9.93;;
3683;SDS011;1858;48.716;9.648;2024-03-08T11:07:24;16.90;;;11.20;;
3683;SDS011;1858;48.716;9.648;2024-03-08T11:09:54;13.57;;;9.00;;
3683;SDS011;1858;48.716;9.648;2024-03-08T11:12:24;16.90;;;8.87;;
3683;SDS011;1858;48.716;9.648;2024-03-08T11:15:02;28.17;;;10.83;;
3683;SDS011;1858;48.716;9.648;2024-03-08T11:17:58;20.60;;;11.73;;
3683;SDS011;1858;48.716;9.648;2024-03-08T11:20:28;20.57;;;9.47;;
3683;SDS011;1858;48.716;9.648;2024-03-08T11:23:03;15.80;;;10.07;;
3683;SDS011;1858;48.716;9.648;2024-03-08T11:25:49;20.30;;;10.20;;
3683;SDS011;1858;48.716;9.648;2024-03-08T11:28:20;27.17;;;10.33;;
3683;SDS011;1858;48.716;9.648;2024-03-08T11:33:32;17.47;;;9.80;;
3683;SDS011;1858;48.716;9.648;2024-03-08T11:36:03;20.10;;;11.13;;
3683;SDS011;1858;48.716;9.648;2024-03-08T11:38:51;22.23;;;11.07;;
3683;SDS011;1858;48.716;9.648;2024-03-08T11:41:22;21.60;;;11.33;;
3683;SDS011;1858;48.716;9.648;2024-03-08T11:44:04;19.10;;;11.30;;
3683;SDS011;1858;48.716;9.648;2024-03-08T11:46:33;22.80;;;11.40;;
3683;SDS011;1858;48.716;9.648;2024-03-08T13:31:27;18.23;;;11.13;;
3683;SDS011;1858;48.716;9.648;2024-03-08T13:33:56;15.70;;;9.67;;
3683;SDS011;1858;48.716;9.648;2024-03-08T13:36:27;19.10;;;9.87;;
3683;SDS011;1858;48.716;9.648;2024-03-08T13:38:57;16.30;;;9.70;;
3683;SDS011;1858;48.716;9.648;2024-03-08T13:41:26;17.47;;;8.10;;
3683;SDS011;1858;48.716;9.648;2024-03-08T13:43:54;14.80;;;9.33;;
3683;SDS011;1858;48.716;9.648;2024-03-08T13:46:23;19.13;;;9.53;;
3683;SDS011;1858;48.716;9.648;2024-03-08T13:48:51;15.17;;;9.93;;
3683;SDS011;1858;48.716;9.648;2024-03-08T13:51:21;16.70;;;9.60;;
3683;SDS011;1858;48.716;9.648;2024-03-08T13:53:51;15.00;;;9.40;;
3683;SDS011;1858;48.716;9.648;2024-03-08T13:56:19;18.13;;;9.70;;
3683;SDS011;1858;48.716;9.648;2024-03-08T13:58:48;16.17;;;8.40;;
3683;SDS011;1858;48.716;9.648;2024-03-08T14:01:16;22.40;;;10.27;;
3683;SDS011;1858;48.716;9.648;2024-03-08T14:06:34;18.37;;;9.97;;
3683;SDS011;1858;48.716;9.648;2024-03-08T14:09:02;17.33;;;9.60;;
3683;SDS011;1858;48.716;9.648;2024-03-08T14:11:32;23.67;;;10.20;;
3683;SDS011;1858;48.716;9.648;2024-03-08T14:14:01;15.40;;;9.57;;
3683;SDS011;1858;48.716;9.648;2024-03-08T14:16:29;17.20;;;8.40;;
3683;SDS011;1858;48.716;9.648;2024-03-08T14:18:58;20.77;;;10.93;;
3683;SDS011;1858;48.716;9.648;2024-03-08T14:21:28;13.27;;;8.80;;
3683;SDS011;1858;48.716;9.648;2024-03-08T14:26:45;18.93;;;8.50;;
3683;SDS011;1858;48.716;9.648;2024-03-08T14:29:15;13.77;;;7.73;;
3683;SDS011;1858;48.716;9.648;2024-03-08T14:31:45;14.10;;;8.27;;
3683;SDS011;1858;48.716;9.648;2024-03-08T14:34:13;17.83;;;9.23;;
3683;SDS011;1858;48.716;9.648;2024-03-08T14:36:42;13.53;;;7.90;;
3683;SDS011;1858;48.716;9.648;2024-03-08T14:39:11;17.00;;;9.33;;
3683;SDS011;1858;48.716;9.648;2024-03-08T14:41:39;15.30;;;8.57;;
3683;SDS011;1858;48.716;9.648;2024-03-08T14:44:07;13.20;;;9.00;;
3683;SDS011;1858;48.716;9.648;2024-03-08T14:46:36;13.87;;;7.77;;
3683;SDS011;1858;48.716;9.648;2024-03-08T14:49:05;21.80;;;7.57;;
3683;SDS011;1858;48.716;9.648;2024-03-08T14:51:34;14.73;;;8.50;;
3683;SDS011;1858;48.716;9.648;2024-03-08T14:54:02;16.93;;;9.27;;
3683;SDS011;1858;48.716;9.648;2024-03-08T14:56:33;22.10;;;9.70;;
3683;SDS011;1858;48.716;9.648;2024-03-08T14:59:01;12.67;;;8.03;;
3683;SDS011;1858;48.716;9.648;2024-03-08T15:01:31;19.10;;;9.70;;
3683;SDS011;1858;48.716;9.648;2024-03-08T15:04:02;16.20;;;9.03;;
3683;SDS011;1858;48.716;9.648;2024-03-08T15:06:32;15.57;;;8.53;;
3683;SDS011;1858;48.716;9.648;2024-03-08T15:09:00;13.50;;;6.93;;
3683;SDS011;1858;48.716;9.648;2024-03-08T15:11:30;14.77;;;8.97;;
3683;SDS011;1858;48.716;9.648;2024-03-08T15:13:59;23.37;;;10.07;;
3683;SDS011;1858;48.716;9.648;2024-03-08T15:16:28;14.10;;;8.73;;
3683;SDS011;1858;48.716;9.648;2024-03-08T15:18:56;18.20;;;10.30;;
3683;SDS011;1858;48.716;9.648;2024-03-08T15:24:16;16.57;;;9.10;;
3683;SDS011;1858;48.716;9.648;2024-03-08T15:26:46;14.30;;;8.87;;
3683;SDS011;1858;48.716;9.648;2024-03-08T15:29:16;17.30;;;8.30;;
3683;SDS011;1858;48.716;9.648;2024-03-08T15:31:46;11.17;;;7.50;;
3683;SDS011;1858;48.716;9.648;2024-03-08T15:34:16;16.17;;;8.20;;
3683;SDS011;1858;48.716;9.648;2024-03-08T15:36:46;15.30;;;7.23;;
3683;SDS011;1858;48.716;9.648;2024-03-08T15:39:16;14.67;;;8.63;;
3683;SDS011;1858;48.716;9.648;2024-03-08T15:41:47;16.40;;;9.60;;
3683;SDS011;1858;48.716;9.648;2024-03-08T15:44:16;12.70;;;8.10;;
3683;SDS011;1858;48.716;9.648;2024-03-08T15:46:44;10.57;;;7.30;;
3683;SDS011;1858;48.716;9.648;2024-03-08T15:49:13;13.57;;;8.03;;
3683;SDS011;1858;48.716;9.648;2024-03-08T15:51:41;10.67;;;6.00;;
3683;SDS011;1858;48.716;9.648;2024-03-08T15:54:11;16.37;;;8.80;;
3683;SDS011;1858;48.716;9.648;2024-03-08T15:56:39;15.10;;;7.90;;
3683;SDS011;1858;48.716;9.648;2024-03-08T15:59:08;9.60;;;6.20;;
3683;SDS011;1858;48.716;9.648;2024-03-08T16:01:36;13.53;;;7.27;;
3683;SDS011;1858;48.716;9.648;2024-03-08T16:04:04;15.23;;;7.70;;
3683;SDS011;1858;48.716;9.648;2024-03-08T16:06:33;12.90;;;7.30;;
3683;SDS011;1858;48.716;9.648;2024-03-08T16:09:03;11.20;;;6.40;;
3683;SDS011;1858;48.716;9.648;2024-03-08T16:11:33;16.00;;;7.73;;
3683;SDS011;1858;48.716;9.648;2024-03-08T16:14:03;12.83;;;7.83;;
3683;SDS011;1858;48.716;9.648;2024-03-08T16:16:32;15.87;;;7.87;;
3683;SDS011;1858;48.716;9.648;2024-03-08T16:19:00;12.53;;;6.80;;
3683;SDS011;1858;48.716;9.648;2024-03-08T16:21:30;12.67;;;8.50;;
3683;SDS011;1858;48.716;9.648;2024-03-08T16:24:00;13.57;;;7.80;;
3683;SDS011;1858;48.716;9.648;2024-03-08T16:26:28;11.53;;;6.90;;
3683;SDS011;1858;48.716;9.648;2024-03-08T16:28:58;14.13;;;7.77;;
3683;SDS011;1858;48.716;9.648;2024-03-08T16:34:15;13.40;;;7.27;;
3683;SDS011;1858;48.716;9.648;2024-03-08T16:36:43;12.67;;;6.23;;
3683;SDS011;1858;48.716;9.648;2024-03-08T16:39:12;12.47;;;6.70;;
3683;SDS011;1858;48.716;9.648;2024-03-08T16:41:41;14.03;;;7.20;;
3683;SDS011;1858;48.716;9.648;2024-03-08T16:44:09;12.70;;;7.40;;
3683;SDS011;1858;48.716;9.648;2024-03-08T16:46:37;14.43;;;7.23;;
3683;SDS011;1858;48.716;9.648;2024-03-08T16:49:06;10.30;;;6.53;;
3683;SDS011;1858;48.716;9.648;2024-03-08T16:51:34;14.83;;;7.03;;
3683;SDS011;1858;48.716;9.648;2024-03-08T16:54:03;9.57;;;6.60;;
3683;SDS011;1858;48.716;9.648;2024-03-08T16:56:31;13.47;;;6.43;;
3683;SDS011;1858;48.716;9.648;2024-03-08T16:58:59;10.20;;;6.87;;
3683;SDS011;1858;48.716;9.648;2024-03-08T17:01:30;9.20;;;5.60;;
3683;SDS011;1858;48.716;9.648;2024-03-08T17:06:48;13.10;;;6.37;;
3683;SDS011;1858;48.716;9.648;2024-03-08T17:09:16;16.00;;;7.83;;
3683;SDS011;1858;48.716;9.648;2024-03-08T17:11:45;8.60;;;6.10;;
3683;SDS011;1858;48.716;9.648;2024-03-08T17:14:15;11.07;;;5.97;;
3683;SDS011;1858;48.716;9.648;2024-03-08T17:16:45;10.93;;;6.33;;
3683;SDS011;1858;48.716;9.648;2024-03-08T17:19:13;10.17;;;6.77;;
3683;SDS011;1858;48.716;9.648;2024-03-08T17:21:42;13.30;;;6.67;;
3683;SDS011;1858;48.716;9.648;2024-03-08T17:24:10;8.45;;;5.20;;
3683;SDS011;1858;48.716;9.648;2024-03-08T17:26:40;10.63;;;6.30;;
3683;SDS011;1858;48.716;9.648;2024-03-08T17:29:10;10.63;;;6.07;;
3683;SDS011;1858;48.716;9.648;2024-03-08T17:31:40;10.93;;;6.43;;
3683;SDS011;1858;48.716;9.648;2024-03-08T17:34:11;13.70;;;7.20;;
3683;SDS011;1858;48.716;9.648;2024-03-08T17:36:41;12.43;;;6.17;;
3683;SDS011;1858;48.716;9.648;2024-03-08T17:39:09;10.63;;;6.10;;
3683;SDS011;1858;48.716;9.648;2024-03-08T17:41:40;13.80;;;6.40;;
3683;SDS011;1858;48.716;9.648;2024-03-08T17:44:10;9.30;;;5.57;;
3683;SDS011;1858;48.716;9.648;2024-03-08T17:51:34;9.80;;;5.23;;
3683;SDS011;1858;48.716;9.648;2024-03-08T18:14:09;12.90;;;5.50;;
3683;SDS011;1858;48.716;9.648;2024-03-08T18:16:39;10.90;;;5.50;;
3683;SDS011;1858;48.716;9.648;2024-03-08T18:19:09;8.97;;;6.13;;
3683;SDS011;1858;48.716;9.648;2024-03-08T18:21:39;13.27;;;5.93;;
3683;SDS011;1858;48.716;9.648;2024-03-08T18:24:07;10.90;;;5.53;;
3683;SDS011;1858;48.716;9.648;2024-03-08T18:26:35;9.33;;;5.00;;
3683;SDS011;1858;48.716;9.648;2024-03-08T18:29:04;7.90;;;5.20;;
3683;SDS011;1858;48.716;9.648;2024-03-08T18:34:02;11.57;;;5.60;;
3683;SDS011;1858;48.716;9.648;2024-03-08T18:36:32;10.53;;;6.03;;
3683;SDS011;1858;48.716;9.648;2024-03-08T18:39:00;9.65;;;6.15;;
3683;SDS011;1858;48.716;9.648;2024-03-08T18:41:31;7.90;;;5.40;;
3683;SDS011;1858;48.716;9.648;2024-03-08T18:44:00;10.40;;;5.50;;
3683;SDS011;1858;48.716;9.648;2024-03-08T18:46:29;8.95;;;5.20;;
3683;SDS011;1858;48.716;9.648;2024-03-08T18:48:59;12.60;;;5.37;;
3683;SDS011;1858;48.716;9.648;2024-03-08T18:51:27;8.63;;;4.93;;
3683;SDS011;1858;48.716;9.648;2024-03-08T18:53:56;10.63;;;4.70;;
3683;SDS011;1858;48.716;9.648;2024-03-08T22:40:38;12.00;;;7.40;;
3683;SDS011;1858;48.716;9.648;2024-03-08T22:43:06;13.00;;;5.90;;
3683;SDS011;1858;48.716;9.648;2024-03-08T22:45:35;8.80;;;6.00;;
3683;SDS011;1858;48.716;9.648;2024-03-08T22:48:04;12.13;;;6.80;;
3683;SDS011;1858;48.716;9.648;2024-03-08T22:50:33;9.70;;;5.83;;
3683;SDS011;1858;48.716;9.648;2024-03-08T22:53:03;13.17;;;7.20;;
3683;SDS011;1858;48.716;9.648;2024-03-08T22:58:19;9.40;;;5.50;;
3683;SDS011;1858;48.716;9.648;2024-03-08T23:00:49;9.83;;;5.90;;
3683;SDS011;1858;48.716;9.648;2024-03-08T23:03:23;12.93;;;6.07;;
3683;SDS011;1858;48.716;9.648;2024-03-08T23:05:52;10.83;;;5.93;;
3683;SDS011;1858;48.716;9.648;2024-03-08T23:08:42;8.47;;;5.20;;
